Time;durP1;ratioP1;P1;durP2;ratioP2;P2;SDS_P1;SDS_P2;PMS_P1;PMS_P2;Temp;Humidity;BMP_temperature;BMP_pressure;BME280_temperature;BME280_humidity;BME280_pressure;Samples;Min_cycle;Max_cycle;Signal;HPM_P1;HPM_P2
2023/09/19 00:00:59;;;;;;;;;10.25;9.50;;;;;-143.90;86.45;73944.38;4880075;28;102436;-74
2023/09/19 00:03:28;;;;;;;;;11.00;10.00;;;;;-143.90;86.42;73946.44;4896561;28;103809;-75
2023/09/19 00:05:55;;;;;;;;;7.00;7.00;;;;;-143.90;86.66;73942.31;4859083;28;102131;-74
2023/09/19 00:08:22;;;;;;;;;8.00;8.00;;;;;-143.90;86.78;73948.50;4893407;28;102532;-74
2023/09/19 00:10:49;;;;;;;;;14.75;14.00;;;;;-143.90;85.98;73934.03;4926433;28;102349;-75
2023/09/19 00:13:16;;;;;;;;;16.50;14.25;;;;;-143.90;85.76;73940.25;4900914;28;105621;-74
2023/09/19 00:15:55;;;;;;;;;11.25;11.00;;;;;-143.90;84.93;73923.72;4914784;28;102060;-74
2023/09/19 00:18:24;;;;;;;;;15.00;13.75;;;;;-143.90;85.18;73936.09;4895868;28;102558;-74
2023/09/19 00:20:51;;;;;;;;;17.50;15.25;;;;;-143.90;84.77;73936.09;4918407;28;102478;-74
2023/09/19 00:23:19;;;;;;;;;15.00;13.00;;;;;-143.90;85.25;73921.63;4898565;28;103662;-74
2023/09/19 00:25:47;;;;;;;;;19.25;16.75;;;;;-143.90;85.04;73923.72;4890942;28;103353;-74
2023/09/19 00:28:14;;;;;;;;;15.00;14.00;;;;;-143.90;85.86;73923.72;4898698;28;102272;-74
2023/09/19 00:30:47;;;;;;;;;15.00;14.00;;;;;-143.90;85.31;73925.78;4875698;28;101985;-74
2023/09/19 00:33:16;;;;;;;;;20.50;16.50;;;;;-143.90;86.33;73911.31;4869390;28;105160;-74
2023/09/19 00:35:51;;;;;;;;;24.75;20.00;;;;;-143.90;85.60;73917.50;4866121;28;104586;-74
2023/09/19 00:38:21;;;;;;;;;14.00;13.75;;;;;-143.90;84.74;73890.63;4875910;28;102551;-74
2023/09/19 00:40:51;;;;;;;;;18.00;15.75;;;;;-143.90;83.73;73882.38;4901530;28;102786;-73
2023/09/19 00:43:29;;;;;;;;;13.25;12.00;;;;;-143.90;82.84;73872.03;4886901;28;104074;-74
2023/09/19 00:45:56;;;;;;;;;11.00;10.67;;;;;-143.90;83.30;73872.03;4844289;28;102328;-73
2023/09/19 00:48:27;;;;;;;;;8.67;8.67;;;;;-143.90;83.73;73861.69;4881193;28;102239;-74
2023/09/19 00:50:56;;;;;;;;;8.00;8.00;;;;;-143.90;83.29;73853.44;4842416;28;104568;-74
2023/09/19 00:53:25;;;;;;;;;7.33;7.00;;;;;-143.90;83.24;73849.31;4882554;28;105376;-73
2023/09/19 00:55:56;;;;;;;;;7.00;7.00;;;;;-143.90;83.07;73841.03;4834701;28;102186;-73
2023/09/19 00:58:32;;;;;;;;;8.00;6.00;;;;;-143.90;83.26;73838.97;4863140;28;102260;-73
2023/09/19 01:01:06;;;;;;;;;5.00;5.00;;;;;-143.90;83.21;73832.78;4834157;28;105303;-73
2023/09/19 01:03:36;;;;;;;;;6.67;6.00;;;;;-143.90;83.83;73826.56;4883815;28;108780;-74
2023/09/19 01:06:04;;;;;;;;;5.00;5.00;;;;;-143.90;85.37;73830.69;4836201;28;105192;-74
2023/09/19 01:08:31;;;;;;;;;5.00;5.00;;;;;-143.90;85.44;73836.91;4897118;28;102060;-74
2023/09/19 01:11:14;;;;;;;;;7.00;6.00;;;;;-143.90;85.86;73824.50;4898469;28;102149;-74
2023/09/19 01:14:01;;;;;;;;;4.33;4.00;;;;;-143.90;84.77;73820.38;4867089;28;110252;-74
2023/09/19 01:16:42;;;;;;;;;6.00;6.00;;;;;-143.90;83.02;73816.25;4873597;28;102434;-73
2023/09/19 01:19:40;;;;;;;;;5.00;5.00;;;;;-143.90;83.63;73807.97;4877623;28;102613;-73
2023/09/19 01:22:32;;;;;;;;;4.00;4.00;;;;;-143.90;85.41;73795.56;4895495;28;102208;-74
2023/09/19 01:25:18;;;;;;;;;6.00;5.00;;;;;-143.90;86.31;73795.56;4912928;28;109873;-73
2023/09/19 01:28:00;;;;;;;;;3.33;3.33;;;;;-143.90;86.12;73795.56;4909308;28;104009;-74
2023/09/19 01:30:33;;;;;;;;;4.67;4.33;;;;;-143.90;86.17;73793.50;4922449;28;102300;-75
2023/09/19 01:33:00;;;;;;;;;5.00;4.00;;;;;-143.90;85.43;73801.78;4897007;28;102172;-74
2023/09/19 01:35:34;;;;;;;;;6.00;5.00;;;;;-143.90;83.94;73787.31;4860390;28;105981;-75
2023/09/19 01:38:04;;;;;;;;;6.33;6.00;;;;;-143.90;82.60;73783.16;4864062;28;102441;-74
2023/09/19 01:40:31;;;;;;;;;7.00;7.00;;;;;-143.90;81.01;73783.16;4897865;28;102139;-74
2023/09/19 01:43:42;;;;;;;;;10.25;9.25;;;;;-143.90;81.90;73762.50;4552170;28;10000843;-75
2023/09/19 01:46:25;;;;;;;;;12.00;10.33;;;;;-143.90;81.44;73770.78;4876302;28;102478;-74
2023/09/19 01:48:57;;;;;;;;;8.33;8.33;;;;;-143.90;80.96;73760.44;4875547;28;103358;-74
2023/09/19 01:51:51;;;;;;;;;7.00;6.00;;;;;-143.90;81.75;73756.31;4910910;28;101909;-75
2023/09/19 01:54:30;;;;;;;;;5.00;5.00;;;;;-143.90;81.28;73745.97;4888183;28;102065;-74
2023/09/19 01:57:04;;;;;;;;;5.67;5.67;;;;;-143.90;80.77;73745.97;4907622;28;102134;-74
2023/09/19 01:59:41;;;;;;;;;2.33;2.33;;;;;-143.90;79.99;73739.78;4920571;28;108658;-74
2023/09/19 02:02:09;;;;;;;;;7.33;7.33;;;;;-143.90;79.23;73737.69;4860160;28;102034;-74
2023/09/19 02:04:37;;;;;;;;;6.67;6.33;;;;;-143.90;79.51;73739.78;4923920;28;102970;-75
2023/09/19 02:07:05;;;;;;;;;7.00;5.33;;;;;-143.90;79.63;73741.84;4932417;28;102811;-75
2023/09/19 02:09:35;;;;;;;;;6.33;5.00;;;;;-143.90;80.27;73733.56;4889114;28;110192;-74
2023/09/19 02:12:03;;;;;;;;;4.00;4.00;;;;;-143.90;80.13;73719.09;4869233;28;102282;-74
2023/09/19 02:14:32;;;;;;;;;4.33;4.33;;;;;-143.90;79.14;73727.38;4890484;28;104265;-73
2023/09/19 02:16:59;;;;;;;;;5.00;5.00;;;;;-143.90;79.75;73721.16;4912980;28;103408;-74
2023/09/19 02:19:28;;;;;;;;;5.00;5.00;;;;;-143.90;79.08;73721.16;4920771;28;103456;-74
2023/09/19 02:21:54;;;;;;;;;4.00;4.00;;;;;-143.90;79.63;73717.03;4904539;28;101924;-74
2023/09/19 02:24:21;;;;;;;;;4.67;4.00;;;;;-143.90;79.32;73721.16;4923669;28;104281;-74
2023/09/19 02:26:48;;;;;;;;;4.00;4.00;;;;;-143.90;79.30;73706.69;4904390;28;103625;-74
2023/09/19 02:29:15;;;;;;;;;7.33;7.33;;;;;-143.90;80.40;73698.44;4889146;28;103055;-74
2023/09/19 02:31:42;;;;;;;;;7.00;6.00;;;;;-143.90;79.84;73698.44;4898107;28;102115;-74
2023/09/19 02:34:09;;;;;;;;;7.00;6.33;;;;;-143.90;79.58;73688.09;4905709;28;102013;-74
2023/09/19 02:36:38;;;;;;;;;5.00;5.00;;;;;-143.90;79.75;73688.09;4884281;28;102611;-74
2023/09/19 02:39:08;;;;;;;;;7.00;6.67;;;;;-143.90;79.99;73686.03;4909993;28;104046;-74
2023/09/19 02:41:35;;;;;;;;;6.33;5.33;;;;;-143.90;80.01;73683.97;4872516;28;102186;-74
2023/09/19 02:44:02;;;;;;;;;3.00;3.00;;;;;-143.90;79.99;73683.97;4926601;28;103245;-74
2023/09/19 02:46:29;;;;;;;;;6.00;6.00;;;;;-143.90;80.46;73671.56;4899120;28;102361;-74
2023/09/19 02:48:56;;;;;;;;;6.00;4.67;;;;;-143.90;80.09;73659.16;4888826;28;105351;-74
2023/09/19 02:51:23;;;;;;;;;11.00;10.00;;;;;-143.90;79.61;73667.44;4911030;28;102291;-74
2023/09/19 02:53:54;;;;;;;;;10.00;9.33;;;;;-143.90;80.16;73657.09;4908086;28;102250;-74
2023/09/19 02:56:22;;;;;;;;;8.00;7.00;;;;;-143.90;80.08;73652.97;4918080;28;102522;-74
2023/09/19 02:58:49;;;;;;;;;8.33;8.33;;;;;-143.90;80.22;73646.78;4881007;28;105163;-74
2023/09/19 03:01:18;;;;;;;;;6.33;4.67;;;;;-143.90;80.37;73634.38;4885380;28;104047;-74
2023/09/19 03:03:47;;;;;;;;;8.00;6.00;;;;;-143.90;80.60;73640.56;4885573;28;102597;-74
2023/09/19 03:06:14;;;;;;;;;5.67;4.67;;;;;-143.90;81.25;73642.63;4907287;28;102335;-74
2023/09/19 03:08:42;;;;;;;;;4.33;4.00;;;;;-143.90;81.37;73650.91;4877969;28;104163;-74
2023/09/19 03:11:16;;;;;;;;;5.00;4.67;;;;;-143.90;81.40;73642.63;4891564;28;102503;-75
2023/09/19 03:13:45;;;;;;;;;7.33;7.00;;;;;-143.90;81.20;73646.78;4903318;28;102772;-75
2023/09/19 03:16:15;;;;;;;;;6.00;6.00;;;;;-143.90;81.84;73648.84;4877583;28;102218;-74
2023/09/19 03:18:42;;;;;;;;;5.33;5.33;;;;;-143.90;82.41;73648.84;4892647;28;103075;-73
2023/09/19 03:21:09;;;;;;;;;4.67;4.67;;;;;-143.90;83.48;73642.63;4918741;28;105877;-74
2023/09/19 03:23:39;;;;;;;;;6.33;6.00;;;;;-143.90;83.64;73655.03;4890628;28;102247;-74
2023/09/19 03:26:06;;;;;;;;;7.00;6.00;;;;;-143.90;84.59;73663.31;4873077;28;102301;-73
2023/09/19 03:28:33;;;;;;;;;5.67;5.00;;;;;-143.90;85.91;73673.63;4880582;28;103854;-73
2023/09/19 03:31:05;;;;;;;;;13.67;12.33;;;;;-143.90;87.87;73690.16;4892279;28;102400;-73
2023/09/19 03:33:33;;;;;;;;;13.00;11.67;;;;;-143.90;88.54;73686.03;4910495;28;102073;-73
2023/09/19 03:36:04;;;;;;;;;7.00;6.33;;;;;-143.90;89.00;73686.03;4883913;28;103375;-73
2023/09/19 03:38:35;;;;;;;;;10.67;8.00;;;;;-143.90;90.24;73708.78;4898760;28;103883;-75
2023/09/19 03:41:02;;;;;;;;;6.67;6.00;;;;;-143.90;90.90;73719.09;4919421;28;102248;-74
2023/09/19 03:43:31;;;;;;;;;7.33;6.33;;;;;-143.90;91.49;73710.84;4890820;28;102403;-73
2023/09/19 03:46:03;;;;;;;;;6.67;6.67;;;;;-143.90;92.29;73725.31;4879441;28;102300;-74
2023/09/19 03:48:31;;;;;;;;;8.00;8.00;;;;;-143.90;92.81;73721.16;4897119;28;104854;-74
2023/09/19 03:50:58;;;;;;;;;6.00;6.00;;;;;-143.90;93.82;73727.38;4905613;28;102179;-73
2023/09/19 03:53:25;;;;;;;;;6.00;5.00;;;;;-143.90;94.56;73725.31;4901991;28;103026;-73
2023/09/19 03:55:52;;;;;;;;;9.33;8.67;;;;;-143.90;94.54;73731.50;4907148;28;102570;-73
2023/09/19 03:58:20;;;;;;;;;7.67;7.33;;;;;-143.90;95.04;73729.44;4885652;28;104008;-72
2023/09/19 04:00:49;;;;;;;;;9.33;9.00;;;;;-143.90;95.04;73733.56;4924726;28;102023;-73
2023/09/19 04:03:20;;;;;;;;;5.33;5.00;;;;;-143.90;95.74;73729.44;4907046;28;102459;-73
2023/09/19 04:05:47;;;;;;;;;7.33;7.00;;;;;-143.90;95.64;73725.31;4927086;28;102045;-73
2023/09/19 04:08:14;;;;;;;;;9.33;9.00;;;;;-143.90;95.47;73729.44;4900628;28;104731;-73
2023/09/19 04:10:43;;;;;;;;;8.00;8.00;;;;;-143.90;95.83;73733.56;4911732;28;102276;-73
2023/09/19 04:13:10;;;;;;;;;6.33;6.00;;;;;-143.90;96.13;73737.69;4891702;28;102097;-73
2023/09/19 04:15:37;;;;;;;;;8.00;8.00;;;;;-143.90;96.62;73725.31;4905099;28;102122;-73
2023/09/19 04:18:04;;;;;;;;;3.00;3.00;;;;;-143.90;97.79;73735.63;4915524;28;103547;-73
2023/09/19 04:20:31;;;;;;;;;7.00;7.00;;;;;-143.90;99.38;73743.91;4920847;28;102475;-73
2023/09/19 04:22:59;;;;;;;;;6.00;6.00;;;;;-143.90;100.00;73758.38;4914281;28;102482;-74
2023/09/19 04:25:27;;;;;;;;;7.33;7.00;;;;;-143.90;100.00;73758.38;4921055;28;103358;-73
2023/09/19 04:27:54;;;;;;;;;7.67;6.67;;;;;-143.90;100.00;73754.25;4925405;28;104992;-73
2023/09/19 04:30:21;;;;;;;;;7.33;6.67;;;;;-143.90;100.00;73741.84;4922179;28;104168;-73
2023/09/19 04:32:50;;;;;;;;;8.67;8.67;;;;;-143.90;99.16;73733.56;4912397;28;102051;-73
2023/09/19 04:35:18;;;;;;;;;9.33;8.67;;;;;-143.90;99.07;73739.78;4911278;28;103594;-73
2023/09/19 04:37:45;;;;;;;;;7.67;7.00;;;;;-143.90;98.83;73737.69;4917758;28;103919;-74
2023/09/19 04:40:12;;;;;;;;;5.00;5.00;;;;;-143.90;99.04;73743.91;4916511;28;102514;-74
2023/09/19 04:42:41;;;;;;;;;6.00;6.00;;;;;-143.90;99.37;73739.78;4917974;28;102119;-74
2023/09/19 04:45:09;;;;;;;;;3.33;3.33;;;;;-143.90;99.63;73739.78;4916448;28;103386;-74
2023/09/19 04:47:38;;;;;;;;;9.00;9.00;;;;;-143.90;99.07;73737.69;4936814;28;109752;-73
2023/09/19 04:50:13;;;;;;;;;5.67;5.00;;;;;-143.90;99.31;73741.84;4921789;28;101952;-73
2023/09/19 04:52:44;;;;;;;;;5.33;5.33;;;;;-143.90;99.65;73731.50;4921066;28;102227;-73
2023/09/19 04:55:18;;;;;;;;;7.00;5.67;;;;;-143.90;99.25;73737.69;4913541;28;102208;-73
2023/09/19 04:57:50;;;;;;;;;4.00;4.00;;;;;-143.90;99.42;73733.56;4909380;28;107491;-73
2023/09/19 05:00:22;;;;;;;;;5.33;5.33;;;;;-143.90;99.86;73733.56;4932725;28;102118;-73
2023/09/19 05:02:51;;;;;;;;;5.00;5.00;;;;;-143.90;99.59;73733.56;4918044;28;102407;-73
2023/09/19 05:05:22;;;;;;;;;7.33;6.33;;;;;-143.90;100.00;73729.44;4930270;28;102453;-73
2023/09/19 05:07:51;;;;;;;;;8.00;7.33;;;;;-143.90;100.00;73731.50;4913401;28;104303;-75
2023/09/19 05:10:20;;;;;;;;;8.00;8.00;;;;;-143.90;100.00;73750.09;4906166;28;102228;-74
2023/09/19 05:12:48;;;;;;;;;7.33;7.33;;;;;-143.90;100.00;73733.56;4917026;28;104313;-74
2023/09/19 05:15:16;;;;;;;;;10.00;9.67;;;;;-143.90;99.88;73735.63;4934089;28;102103;-73
2023/09/19 05:17:54;;;;;;;;;5.00;5.00;;;;;-143.90;100.00;73737.69;4929544;28;103923;-73
2023/09/19 05:20:29;;;;;;;;;18.00;17.25;;;;;-143.90;100.00;73745.97;4937821;28;102247;-73
2023/09/19 05:23:02;;;;;;;;;13.00;13.00;;;;;-143.90;100.00;73748.03;4932686;28;102170;-73
2023/09/19 05:25:31;;;;;;;;;14.00;13.25;;;;;-143.90;100.00;73750.09;4928744;28;102343;-72
2023/09/19 05:27:58;;;;;;;;;19.25;17.00;;;;;-143.90;100.00;73745.97;4946874;28;105576;-73
2023/09/19 05:30:27;;;;;;;;;20.25;16.25;;;;;-143.90;100.00;73748.03;4949582;28;102454;-73
2023/09/19 05:32:54;;;;;;;;;19.00;17.00;;;;;-143.90;100.00;73750.09;4932796;28;101908;-73
2023/09/19 05:35:21;;;;;;;;;17.25;16.25;;;;;-143.90;100.00;73752.16;4934099;28;102290;-73
2023/09/19 05:37:51;;;;;;;;;17.00;16.00;;;;;-143.90;100.00;73758.38;4931761;28;103712;-73
2023/09/19 05:40:18;;;;;;;;;17.50;15.50;;;;;-143.90;100.00;73762.50;4926410;28;102670;-73
2023/09/19 05:42:46;;;;;;;;;14.75;14.00;;;;;-143.90;100.00;73756.31;4930616;28;102039;-73
2023/09/19 05:45:14;;;;;;;;;13.25;11.00;;;;;-143.90;100.00;73766.63;4935930;28;102528;-70
2023/09/19 05:47:45;;;;;;;;;15.00;14.00;;;;;-143.90;100.00;73758.38;4930023;28;109854;-73
2023/09/19 05:50:12;;;;;;;;;13.67;13.33;;;;;-143.90;100.00;73748.03;4946826;28;102392;-74
2023/09/19 05:52:40;;;;;;;;;10.00;10.00;;;;;-143.90;100.00;73754.25;4933185;28;102527;-74
2023/09/19 05:55:08;;;;;;;;;11.67;10.00;;;;;-143.90;100.00;73758.38;4946537;28;102061;-73
2023/09/19 05:57:35;;;;;;;;;16.75;14.50;;;;;-143.90;100.00;73758.38;4922182;28;104301;-72
2023/09/19 06:00:02;;;;;;;;;13.00;13.00;;;;;-143.90;100.00;73768.69;4933770;28;102009;-73
2023/09/19 06:02:30;;;;;;;;;13.67;13.67;;;;;-143.90;100.00;73764.56;4951132;28;102311;-72
2023/09/19 06:04:57;;;;;;;;;11.00;11.00;;;;;-143.90;100.00;73760.44;4933301;28;102409;-72
2023/09/19 06:07:26;;;;;;;;;10.67;10.67;;;;;-143.90;100.00;73768.69;4928070;28;103147;-73
2023/09/19 06:09:53;;;;;;;;;12.67;11.00;;;;;-143.90;100.00;73762.50;4924601;28;101878;-73
2023/09/19 06:12:20;;;;;;;;;10.67;10.67;;;;;-143.90;100.00;73762.50;4929911;28;102347;-73
2023/09/19 06:14:48;;;;;;;;;9.33;9.00;;;;;-143.90;100.00;73766.63;4936897;28;102426;-72
2023/09/19 06:17:15;;;;;;;;;10.67;10.00;;;;;-143.90;100.00;73768.69;4932347;28;103977;-73
2023/09/19 06:19:47;;;;;;;;;11.00;9.67;;;;;-143.90;100.00;73768.69;4937173;28;102270;-73
2023/09/19 06:22:18;;;;;;;;;10.33;10.33;;;;;-143.90;100.00;73762.50;4926474;28;102412;-73
2023/09/19 06:24:46;;;;;;;;;16.00;13.50;;;;;-143.90;100.00;73770.78;4934454;28;102413;-73
2023/09/19 06:27:13;;;;;;;;;15.67;13.00;;;;;-143.90;100.00;73768.69;4920554;28;104154;-72
2023/09/19 06:29:40;;;;;;;;;16.25;15.50;;;;;-143.90;100.00;73774.91;4937606;28;102355;-73
2023/09/19 06:32:10;;;;;;;;;15.75;15.00;;;;;-143.90;100.00;73793.50;4920022;28;102169;-74
2023/09/19 06:34:38;;;;;;;;;13.67;13.00;;;;;-143.90;100.00;73793.50;4948004;28;102401;-74
2023/09/19 06:37:06;;;;;;;;;21.50;20.75;;;;;-143.90;100.00;73795.56;4926306;28;103994;-74
2023/09/19 06:39:32;;;;;;;;;21.50;20.00;;;;;-143.90;99.93;73805.91;4919163;28;102225;-73
2023/09/19 06:42:01;;;;;;;;;18.50;16.75;;;;;-143.90;99.76;73812.09;4932064;28;102551;-73
2023/09/19 06:44:29;;;;;;;;;27.00;20.75;;;;;-143.90;99.41;73824.50;4924295;28;102089;-73
2023/09/19 06:46:56;;;;;;;;;26.50;22.25;;;;;-143.90;99.11;73830.69;4912191;28;103166;-74
2023/09/19 06:49:23;;;;;;;;;26.00;20.00;;;;;-143.90;99.20;73836.91;4921912;28;104838;-74
2023/09/19 06:51:49;;;;;;;;;18.25;18.00;;;;;-143.90;99.56;73851.38;4911766;28;102112;-73
2023/09/19 06:54:17;;;;;;;;;15.75;13.00;;;;;-143.90;99.46;73853.44;4920247;28;102699;-72
2023/09/19 06:56:44;;;;;;;;;14.25;14.25;;;;;-143.90;99.83;73849.31;4920787;28;105363;-73
2023/09/19 06:59:14;;;;;;;;;16.00;14.75;;;;;-143.90;99.32;73855.50;4931161;28;102284;-72
2023/09/19 07:01:41;;;;;;;;;16.00;14.75;;;;;-143.90;99.19;73865.84;4927379;28;102414;-72
2023/09/19 07:04:08;;;;;;;;;14.25;13.25;;;;;-143.90;99.00;73855.50;4926227;28;102280;-72
2023/09/19 07:06:35;;;;;;;;;11.00;10.33;;;;;-143.90;99.64;73857.56;4925468;28;104176;-73
2023/09/19 07:09:02;;;;;;;;;13.00;11.00;;;;;-143.90;99.41;73865.84;4917240;28;102126;-73
2023/09/19 07:11:30;;;;;;;;;14.75;13.00;;;;;-143.90;99.40;73869.97;4918046;28;103565;-73
2023/09/19 07:13:58;;;;;;;;;14.67;13.67;;;;;-143.90;99.45;73865.84;4927093;28;102175;-72
2023/09/19 07:16:29;;;;;;;;;11.67;10.00;;;;;-143.90;99.37;73865.84;4925476;28;104126;-73
2023/09/19 07:18:57;;;;;;;;;6.67;6.33;;;;;-143.90;99.44;73874.09;4923188;28;102099;-73
2023/09/19 07:21:24;;;;;;;;;11.33;9.67;;;;;-143.90;99.57;73886.50;4927216;28;102542;-73
2023/09/19 07:23:51;;;;;;;;;13.25;13.00;;;;;-143.90;99.66;73890.63;4928140;28;102695;-73
2023/09/19 07:26:19;;;;;;;;;9.00;9.00;;;;;-143.90;99.80;73903.03;4928645;28;104470;-73
2023/09/19 07:28:45;;;;;;;;;13.00;13.00;;;;;-143.90;99.87;73909.25;4925713;28;102412;-73
2023/09/19 07:31:14;;;;;;;;;11.00;9.33;;;;;-143.90;99.93;73903.03;4916638;28;102292;-72
2023/09/19 07:33:41;;;;;;;;;10.00;9.67;;;;;-143.90;100.00;73905.09;4930699;28;102140;-72
2023/09/19 07:36:10;;;;;;;;;8.67;8.00;;;;;-143.90;99.98;73913.38;4925022;28;109109;-72
2023/09/19 07:38:37;;;;;;;;;13.00;11.00;;;;;-143.90;100.00;73911.31;4927940;28;102113;-72
2023/09/19 07:41:05;;;;;;;;;8.33;7.00;;;;;-143.90;100.00;73905.09;4923405;28;102130;-72
2023/09/19 07:43:33;;;;;;;;;9.33;8.33;;;;;-143.90;100.00;73923.72;4929802;28;102141;-73
2023/09/19 07:46:08;;;;;;;;;10.67;9.67;;;;;-143.90;100.00;73915.44;4910843;28;103993;-72
2023/09/19 07:48:37;;;;;;;;;9.67;9.00;;;;;-143.90;100.00;73917.50;4919109;28;102417;-73
2023/09/19 07:51:06;;;;;;;;;9.67;9.67;;;;;-143.90;100.00;73915.44;4924523;28;102439;-73
2023/09/19 07:53:37;;;;;;;;;6.00;6.00;;;;;-143.90;99.79;73919.56;4921895;28;101945;-73
2023/09/19 07:56:09;;;;;;;;;10.00;8.00;;;;;-143.90;100.00;73911.31;4923838;28;103492;-72
2023/09/19 07:58:41;;;;;;;;;10.00;9.67;;;;;-143.90;99.95;73919.56;4918714;28;103319;-73
2023/09/19 08:01:10;;;;;;;;;7.67;7.67;;;;;-143.90;100.00;73915.44;4942677;28;102187;-73
2023/09/19 08:03:41;;;;;;;;;10.67;8.67;;;;;-143.90;100.00;73917.50;4921016;28;102226;-73
2023/09/19 08:06:09;;;;;;;;;7.33;6.67;;;;;-143.90;100.00;73917.50;4923842;28;107776;-73
2023/09/19 08:08:37;;;;;;;;;9.00;6.67;;;;;-143.90;100.00;73923.72;4924632;28;102864;-73
2023/09/19 08:11:12;;;;;;;;;8.67;8.00;;;;;-143.90;100.00;73923.72;4929578;28;102097;-73
2023/09/19 08:13:43;;;;;;;;;8.00;7.00;;;;;-143.90;100.00;73927.84;4926075;28;102267;-73
2023/09/19 08:16:10;;;;;;;;;6.00;6.00;;;;;-143.90;100.00;73936.09;4917571;28;109847;-73
2023/09/19 08:18:39;;;;;;;;;6.00;6.00;;;;;-143.90;100.00;73936.09;4930244;28;102030;-73
2023/09/19 08:21:10;;;;;;;;;6.33;6.00;;;;;-143.90;100.00;73942.31;4926035;28;102315;-73
2023/09/19 08:23:41;;;;;;;;;7.00;5.67;;;;;-143.90;100.00;73940.25;4908334;28;102334;-73
2023/09/19 08:26:08;;;;;;;;;6.00;5.00;;;;;-143.90;100.00;73944.38;4907708;28;106611;-73
2023/09/19 08:28:36;;;;;;;;;5.67;5.00;;;;;-143.90;100.00;73944.38;4869999;28;102247;-74
2023/09/19 08:31:06;;;;;;;;;4.00;4.00;;;;;-143.90;100.00;73952.63;4886229;28;102376;-74
2023/09/19 08:33:35;;;;;;;;;6.00;4.67;;;;;-143.90;100.00;73973.31;4899508;28;106900;-74
2023/09/19 08:36:04;;;;;;;;;6.00;5.67;;;;;-143.90;100.00;73993.97;4908628;28;105704;-73
2023/09/19 08:38:33;;;;;;;;;4.00;4.00;;;;;-143.90;100.00;73969.19;4909171;28;102477;-72
2023/09/19 08:41:00;;;;;;;;;3.00;3.00;;;;;-143.90;100.00;73971.25;4888461;28;104196;-73
2023/09/19 08:43:27;;;;;;;;;7.00;6.67;;;;;-143.90;100.00;73977.44;4910008;28;103038;-73
2023/09/19 08:46:19;;;;;;;;;3.33;3.33;;;;;-143.90;100.00;73965.03;4878219;28;104032;-73
2023/09/19 08:49:08;;;;;;;;;2.00;2.00;;;;;-143.90;100.00;73965.03;4881421;28;103049;-74
2023/09/19 08:51:46;;;;;;;;;2.67;2.33;;;;;-143.90;100.00;73969.19;4882103;28;102167;-73
2023/09/19 08:54:29;;;;;;;;;3.00;3.00;;;;;-143.90;100.00;73965.03;4907699;28;102200;-74
2023/09/19 08:57:02;;;;;;;;;3.00;2.67;;;;;-143.90;100.00;73960.91;4907148;28;108541;-73
2023/09/19 08:59:30;;;;;;;;;2.00;2.00;;;;;-143.90;100.00;73969.19;4881744;28;102152;-73
2023/09/19 09:01:57;;;;;;;;;3.00;3.00;;;;;-143.90;100.00;73971.25;4888981;28;102676;-74
2023/09/19 09:04:26;;;;;;;;;3.33;3.00;;;;;-143.90;100.00;73969.19;4891081;28;102214;-74
2023/09/19 09:06:55;;;;;;;;;3.33;3.00;;;;;-143.90;100.00;73975.38;4876375;28;104823;-74
2023/09/19 09:09:22;;;;;;;;;3.00;2.00;;;;;-143.90;100.00;73981.56;4907951;28;102060;-73
2023/09/19 09:11:52;;;;;;;;;4.00;4.00;;;;;-143.90;100.00;73973.31;4892871;28;104542;-73
2023/09/19 09:14:21;;;;;;;;;2.00;2.00;;;;;-143.90;100.00;73983.66;4910623;28;102227;-74
2023/09/19 09:16:48;;;;;;;;;3.00;3.00;;;;;-143.90;100.00;73996.03;4897538;28;103589;-74
2023/09/19 09:19:24;;;;;;;;;5.00;4.00;;;;;-143.90;100.00;74012.56;4903463;28;102321;-74
2023/09/19 09:21:51;;;;;;;;;5.67;4.00;;;;;-143.90;100.00;74002.25;4898995;28;102463;-73
2023/09/19 09:24:29;;;;;;;;;5.33;4.00;;;;;-143.90;100.00;74018.78;4926532;28;102113;-73
2023/09/19 09:26:57;;;;;;;;;6.00;5.00;;;;;-143.90;100.00;74029.13;4920919;28;103084;-72
2023/09/19 09:29:43;;;;;;;;;5.00;4.33;;;;;-143.90;100.00;74016.72;4931275;28;102554;-73
2023/09/19 09:32:20;;;;;;;;;5.00;5.00;;;;;-143.90;100.00;74016.72;4926956;28;102751;-73
2023/09/19 09:34:54;;;;;;;;;4.33;3.00;;;;;-143.90;100.00;74014.66;4913886;28;102496;-74
2023/09/19 09:37:26;;;;;;;;;5.00;4.67;;;;;-143.90;100.00;74014.66;4921057;28;104056;-73
2023/09/19 09:40:19;;;;;;;;;6.67;5.00;;;;;-143.90;100.00;74004.31;4934175;28;102501;-74
2023/09/19 09:42:51;;;;;;;;;5.33;5.00;;;;;-143.90;100.00;74004.31;4890257;28;102023;-73
2023/09/19 09:45:37;;;;;;;;;7.00;5.00;;;;;-143.90;100.00;73998.13;4934900;28;102084;-73
2023/09/19 09:48:14;;;;;;;;;5.00;5.00;;;;;-143.90;100.00;74010.50;4871126;28;103338;-74
2023/09/19 09:53:32;;;;;;;;;6.00;6.00;;;;;-143.90;100.00;74002.25;4898723;28;102399;-74
2023/09/19 09:56:06;;;;;;;;;4.00;4.00;;;;;-143.90;100.00;73989.84;4928345;28;102102;-74
2023/09/19 09:58:37;;;;;;;;;5.00;5.00;;;;;-143.90;100.00;74004.31;4923654;28;103324;-72
2023/09/19 10:01:15;;;;;;;;;3.33;3.33;;;;;-143.90;100.00;73987.78;4882755;28;104133;-73
2023/09/19 10:03:49;;;;;;;;;3.33;3.33;;;;;-143.90;100.00;73983.66;4933887;28;102237;-75
2023/09/19 10:06:27;;;;;;;;;4.33;4.33;;;;;-143.90;100.00;73989.84;4927895;28;102414;-74
2023/09/19 10:09:29;;;;;;;;;4.00;4.00;;;;;-143.90;100.00;73987.78;4924211;28;105056;-74
2023/09/19 10:12:12;;;;;;;;;6.33;4.33;;;;;-143.90;100.00;73989.84;4926034;28;102328;-73
2023/09/19 10:14:42;;;;;;;;;4.00;4.00;;;;;-143.90;100.00;73993.97;4920475;28;102165;-72
2023/09/19 10:17:19;;;;;;;;;5.33;5.00;;;;;-143.90;100.00;73989.84;4898566;28;102961;-73
2023/09/19 10:20:05;;;;;;;;;5.00;4.67;;;;;-143.90;100.00;73991.91;4924843;28;110430;-73
2023/09/19 10:22:35;;;;;;;;;4.00;4.00;;;;;-143.90;100.00;73979.50;4912797;28;102009;-72
2023/09/19 10:25:07;;;;;;;;;5.00;4.00;;;;;-143.90;100.00;73981.56;4944589;28;102509;-73
2023/09/19 10:27:37;;;;;;;;;4.00;4.00;;;;;-143.90;100.00;73975.38;4912497;28;101965;-73
2023/09/19 10:30:09;;;;;;;;;3.00;3.00;;;;;-143.90;100.00;73975.38;4893107;28;104016;-72
2023/09/19 10:32:40;;;;;;;;;3.00;3.00;;;;;-143.90;100.00;73973.31;4917908;28;101916;-73
2023/09/19 10:35:12;;;;;;;;;4.00;3.67;;;;;-143.90;100.00;73975.38;4918991;28;102560;-73
2023/09/19 10:37:44;;;;;;;;;3.33;3.00;;;;;-143.90;100.00;73981.56;4930742;28;102113;-73
2023/09/19 10:40:15;;;;;;;;;4.00;3.33;;;;;-143.90;100.00;73985.72;4911467;28;105262;-72
2023/09/19 10:42:47;;;;;;;;;3.00;3.00;;;;;-143.90;100.00;73985.72;4901263;28;102518;-72
2023/09/19 10:45:17;;;;;;;;;2.33;2.33;;;;;-143.90;100.00;73987.78;4923664;28;103641;-73
2023/09/19 10:47:44;;;;;;;;;4.00;3.67;;;;;-143.90;100.00;73998.13;4902651;28;103128;-73
2023/09/19 10:50:21;;;;;;;;;3.33;3.00;;;;;-143.90;100.00;73996.03;4911779;28;103484;-72
2023/09/19 10:52:52;;;;;;;;;2.33;2.00;;;;;-143.90;100.00;74000.19;4923316;28;102315;-73
2023/09/19 10:55:20;;;;;;;;;3.00;2.00;;;;;-143.90;100.00;73998.13;4893143;28;102066;-72
2023/09/19 10:57:48;;;;;;;;;3.00;3.00;;;;;-143.90;100.00;74004.31;4923902;28;102304;-75
2023/09/19 11:00:24;;;;;;;;;2.00;2.00;;;;;-143.90;100.00;74000.19;4924873;28;108999;-73
2023/09/19 11:03:09;;;;;;;;;2.00;2.00;;;;;-143.90;100.00;74002.25;4929474;28;102478;-72
2023/09/19 11:05:40;;;;;;;;;3.00;3.00;;;;;-143.90;100.00;73998.13;4921575;28;102113;-73
2023/09/19 11:08:08;;;;;;;;;2.33;2.33;;;;;-143.90;100.00;73998.13;4927441;28;102470;-73
2023/09/19 11:10:51;;;;;;;;;3.33;3.33;;;;;-143.90;100.00;74002.25;4913426;28;103690;-73
2023/09/19 11:13:31;;;;;;;;;2.67;2.33;;;;;-143.90;100.00;74000.19;4877127;28;104547;-73
2023/09/19 11:15:58;;;;;;;;;4.00;3.00;;;;;-143.90;100.00;73996.03;4905638;28;102013;-73
2023/09/19 11:18:40;;;;;;;;;3.00;2.00;;;;;-143.90;100.00;73998.13;4925690;28;102329;-72
2023/09/19 11:21:32;;;;;;;;;4.00;4.00;;;;;-143.90;100.00;74006.38;4895927;28;103123;-73